Time;durP1;ratioP1;P1;durP2;ratioP2;P2;SDS_P1;SDS_P2;PMS_P1;PMS_P2;Temp;Humidity;BMP_temperature;BMP_pressure;BME280_temperature;BME280_humidity;BME280_pressure;Samples;Min_cycle;Max_cycle;Signal;HPM_P1;HPM_P2
2022/09/27 00:02:20;;;;;;;67.30;49.38;;;18.50;68.70;;;;;;4957867;28;94504;-55
2022/09/27 00:04:45;;;;;;;69.18;50.17;;;18.50;68.60;;;;;;4961428;28;97306;-52
2022/09/27 00:07:11;;;;;;;68.63;49.75;;;18.50;68.40;;;;;;4965068;28;95590;-54
2022/09/27 00:09:37;;;;;;;68.43;49.38;;;18.50;68.80;;;;;;4969403;28;96786;-56
2022/09/27 00:12:03;;;;;;;68.80;49.78;;;18.50;68.90;;;;;;4965371;28;95214;-52
2022/09/27 00:14:29;;;;;;;67.93;49.55;;;18.40;68.50;;;;;;4966548;28;95147;-53
2022/09/27 00:16:55;;;;;;;66.47;49.30;;;18.40;68.80;;;;;;4965989;28;95795;-54
2022/09/27 00:19:22;;;;;;;67.13;49.85;;;18.40;68.80;;;;;;4965592;28;95395;-52
2022/09/27 00:21:49;;;;;;;67.25;49.63;;;18.30;69.00;;;;;;4963268;28;95184;-50
2022/09/27 00:24:20;;;;;;;67.57;49.38;;;18.30;68.90;;;;;;4970685;28;95137;-52
2022/09/27 00:26:47;;;;;;;67.20;49.45;;;18.30;69.00;;;;;;4961948;28;97351;-51
2022/09/27 00:29:14;;;;;;;67.30;49.50;;;18.30;68.70;;;;;;4968610;28;95161;-55
2022/09/27 00:31:41;;;;;;;67.82;49.72;;;18.20;68.90;;;;;;4966373;28;95358;-52
2022/09/27 00:34:10;;;;;;;67.65;49.03;;;18.30;68.90;;;;;;4969025;28;96248;-50
2022/09/27 00:36:36;;;;;;;67.95;49.80;;;18.30;68.40;;;;;;4962004;28;95201;-54
2022/09/27 00:39:02;;;;;;;66.90;49.42;;;18.30;68.40;;;;;;4961437;28;99005;-50
2022/09/27 00:41:29;;;;;;;67.07;49.70;;;18.20;68.80;;;;;;4963382;28;96777;-54
2022/09/27 00:43:57;;;;;;;67.43;49.50;;;18.20;68.90;;;;;;4962041;28;95719;-53
2022/09/27 00:46:37;;;;;;;66.13;49.28;;;18.30;68.50;;;;;;4958613;28;95626;-52
2022/09/27 00:49:19;;;;;;;66.80;49.25;;;18.20;68.60;;;;;;4967450;28;95516;-54
2022/09/27 00:51:46;;;;;;;;;;;18.20;68.80;;;;;;4965318;28;95027;-50
2022/09/27 00:54:16;;;;;;;66.57;49.53;;;18.20;68.70;;;;;;4969700;28;96013;-53
2022/09/27 00:56:43;;;;;;;66.90;49.33;;;18.10;68.60;;;;;;4968375;28;95050;-52
2022/09/27 00:59:32;;;;;;;67.63;49.25;;;18.10;69.10;;;;;;4963646;28;97901;-59
2022/09/27 01:01:58;;;;;;;65.82;49.05;;;18.20;68.70;;;;;;4959148;28;95258;-54
2022/09/27 01:04:27;;;;;;;66.70;48.80;;;18.20;68.50;;;;;;4967040;28;95657;-55
2022/09/27 01:06:53;;;;;;;66.05;49.10;;;18.20;68.60;;;;;;4967218;28;95138;-49
2022/09/27 01:09:20;;;;;;;67.15;49.10;;;18.10;68.40;;;;;;4968834;28;97855;-58
2022/09/27 01:11:54;;;;;;;66.10;49.25;;;18.10;68.70;;;;;;4964505;28;96853;-58
2022/09/27 01:14:35;;;;;;;67.15;49.13;;;18.10;68.60;;;;;;4961852;28;95193;-59
2022/09/27 01:17:26;;;;;;;67.45;49.25;;;18.10;68.80;;;;;;4965979;28;99228;-55
2022/09/27 01:20:19;;;;;;;66.37;49.07;;;18.10;68.50;;;;;;4952967;28;98043;-59
2022/09/27 01:23:03;;;;;;;67.13;49.05;;;18.10;68.70;;;;;;4959951;28;95854;-57
2022/09/27 01:26:18;;;;;;;66.00;49.47;;;18.10;68.70;;;;;;4963761;28;96625;-58
2022/09/27 01:28:55;;;;;;;66.13;49.30;;;18.10;68.70;;;;;;4961335;28;98666;-58
2022/09/27 01:31:27;;;;;;;65.65;48.92;;;18.10;68.50;;;;;;4955748;28;95932;-57
2022/09/27 01:34:26;;;;;;;67.53;49.33;;;18.10;68.50;;;;;;4962125;28;96476;-57
2022/09/27 01:36:54;;;;;;;65.97;49.05;;;18.10;68.50;;;;;;4964055;28;95471;-59
2022/09/27 01:39:43;;;;;;;65.88;49.08;;;18.00;68.00;;;;;;4962894;28;95683;-58
2022/09/27 01:42:24;;;;;;;67.35;48.97;;;18.00;68.40;;;;;;4964417;28;96133;-59
2022/09/27 01:45:23;;;;;;;66.05;49.25;;;18.00;68.30;;;;;;4963797;28;94553;-57
2022/09/27 01:47:56;;;;;;;65.63;48.90;;;18.00;68.60;;;;;;4962635;28;94665;-56
2022/09/27 01:50:36;;;;;;;67.32;49.10;;;18.00;68.30;;;;;;4964365;28;95621;-58
2022/09/27 01:53:07;;;;;;;67.13;49.20;;;18.00;68.20;;;;;;4966750;28;96794;-59
2022/09/27 01:55:37;;;;;;;65.78;48.97;;;17.90;68.30;;;;;;4955726;28;96720;-59
2022/09/27 01:58:15;;;;;;;65.60;49.13;;;18.00;68.10;;;;;;4955971;28;97172;-58
2022/09/27 02:00:45;;;;;;;66.20;48.88;;;18.00;68.10;;;;;;4962820;28;95372;-58
2022/09/27 02:03:17;;;;;;;65.70;49.13;;;18.00;68.10;;;;;;4967499;28;95834;-57
2022/09/27 02:05:51;;;;;;;66.15;48.97;;;18.00;68.10;;;;;;4960333;28;98545;-58
2022/09/27 02:08:42;;;;;;;66.93;49.15;;;18.00;67.80;;;;;;4966259;28;95501;-58
2022/09/27 02:11:11;;;;;;;66.80;48.88;;;17.90;68.30;;;;;;4974071;28;94854;-58
2022/09/27 02:14:14;;;;;;;65.43;48.63;;;17.90;68.10;;;;;;4962709;28;97211;-58
2022/09/27 02:16:53;;;;;;;67.35;49.03;;;17.90;68.00;;;;;;4961593;28;95430;-58
2022/09/27 02:20:16;;;;;;;65.68;48.65;;;18.00;68.00;;;;;;4959802;28;97476;-59
2022/09/27 02:22:48;;;;;;;65.70;48.67;;;18.00;67.80;;;;;;4905662;28;96306;-59
2022/09/27 02:25:26;;;;;;;66.53;48.85;;;18.00;67.80;;;;;;4904446;28;95115;-58
2022/09/27 02:28:09;;;;;;;66.03;49.00;;;17.90;68.00;;;;;;4939484;28;95415;-59
2022/09/27 02:30:35;;;;;;;66.45;48.92;;;17.90;68.10;;;;;;4962911;28;94597;-57
2022/09/27 02:33:01;;;;;;;66.25;48.95;;;18.00;68.10;;;;;;4962818;28;95033;-58
2022/09/27 02:35:33;;;;;;;65.53;48.75;;;17.90;68.20;;;;;;4969906;28;95585;-58
2022/09/27 02:38:00;;;;;;;66.30;49.22;;;18.00;68.10;;;;;;4963250;28;95613;-59
2022/09/27 02:40:31;;;;;;;64.88;48.65;;;17.90;68.20;;;;;;4959743;28;95102;-56
2022/09/27 02:42:57;;;;;;;;;;;17.90;68.20;;;;;;4960153;28;95372;-58
2022/09/27 02:45:29;;;;;;;65.68;48.97;;;17.90;67.80;;;;;;4969314;28;96218;-59
2022/09/27 02:48:10;;;;;;;64.65;48.65;;;17.80;67.60;;;;;;4971197;28;96672;-58
2022/09/27 02:51:13;;;;;;;64.87;48.70;;;17.80;68.00;;;;;;4957791;28;96900;-51
2022/09/27 02:53:51;;;;;;;64.88;48.72;;;17.70;68.20;;;;;;4964086;28;96165;-50
2022/09/27 02:56:26;;;;;;;65.95;48.65;;;17.70;67.80;;;;;;4959989;28;97469;-53
2022/09/27 02:59:04;;;;;;;65.25;48.90;;;17.70;68.20;;;;;;4965672;28;95488;-53
2022/09/27 03:02:00;;;;;;;64.82;48.55;;;17.70;68.10;;;;;;4962583;28;95241;-52
2022/09/27 03:04:29;;;;;;;64.75;48.65;;;17.70;67.90;;;;;;4957705;28;94803;-50
2022/09/27 03:06:57;;;;;;;65.13;48.83;;;17.70;67.90;;;;;;4937086;28;98041;-52
2022/09/27 03:09:28;;;;;;;65.25;48.80;;;17.70;67.90;;;;;;4958914;28;100492;-52
2022/09/27 03:11:53;;;;;;;65.22;48.75;;;17.80;67.70;;;;;;4963049;28;96709;-52
2022/09/27 03:14:19;;;;;;;65.10;48.58;;;17.80;67.80;;;;;;4958829;28;97414;-54
2022/09/27 03:16:45;;;;;;;65.15;48.83;;;17.80;67.80;;;;;;4960309;28;99071;-50
2022/09/27 03:19:11;;;;;;;65.13;48.58;;;17.80;67.50;;;;;;4959878;28;95134;-53
2022/09/27 03:21:36;;;;;;;65.43;48.70;;;17.70;67.60;;;;;;4959800;28;95063;-56
2022/09/27 03:24:03;;;;;;;66.00;49.05;;;17.80;67.30;;;;;;4959812;28;99028;-53
2022/09/27 03:26:28;;;;;;;65.28;48.95;;;17.70;67.70;;;;;;4962412;28;95319;-54
2022/09/27 03:28:54;;;;;;;65.35;48.42;;;17.70;67.70;;;;;;4964432;28;94996;-52
2022/09/27 03:31:20;;;;;;;65.03;48.55;;;17.70;67.60;;;;;;4962897;28;96667;-53
2022/09/27 03:33:46;;;;;;;65.75;49.03;;;17.70;67.50;;;;;;4952615;28;99428;-52
2022/09/27 03:36:12;;;;;;;64.60;48.85;;;17.70;67.70;;;;;;4960176;28;96167;-48
2022/09/27 03:38:38;;;;;;;64.75;48.55;;;17.70;67.50;;;;;;4968767;28;96542;-50
2022/09/27 03:41:03;;;;;;;65.00;48.75;;;17.70;67.90;;;;;;4970650;28;95122;-54
2022/09/27 03:43:29;;;;;;;65.45;48.53;;;17.70;67.70;;;;;;4969635;28;94878;-52
2022/09/27 03:45:55;;;;;;;65.70;48.88;;;17.70;67.60;;;;;;4966282;28;95541;-53
2022/09/27 03:48:21;;;;;;;64.68;48.60;;;17.80;67.70;;;;;;4970307;28;96524;-52
2022/09/27 03:50:46;;;;;;;64.57;48.35;;;17.80;67.30;;;;;;4965943;28;96256;-54
2022/09/27 03:53:12;;;;;;;65.85;48.75;;;17.80;67.30;;;;;;4972438;28;94168;-54
2022/09/27 03:55:38;;;;;;;65.78;48.75;;;17.80;67.30;;;;;;4974695;28;96147;-56
2022/09/27 03:58:04;;;;;;;65.43;48.85;;;17.80;67.30;;;;;;4964233;28;94700;-53
2022/09/27 04:00:31;;;;;;;65.38;48.60;;;17.80;67.40;;;;;;4958226;28;96182;-53
2022/09/27 04:02:58;;;;;;;66.28;48.83;;;17.80;67.50;;;;;;4962393;28;95897;-54
2022/09/27 04:05:25;;;;;;;66.20;48.80;;;17.90;67.10;;;;;;4961312;28;96223;-52
2022/09/27 04:07:50;;;;;;;66.00;48.58;;;18.00;67.20;;;;;;4960171;28;101030;-50
2022/09/27 04:10:16;;;;;;;64.95;48.75;;;18.00;67.10;;;;;;4959802;28;101398;-51
2022/09/27 04:12:43;;;;;;;67.28;48.97;;;18.00;67.30;;;;;;4961492;28;95479;-55
2022/09/27 04:15:09;;;;;;;66.00;49.30;;;18.00;67.20;;;;;;4957576;28;95547;-51
2022/09/27 04:17:35;;;;;;;64.75;48.80;;;18.00;66.90;;;;;;4960155;28;95656;-51
2022/09/27 04:20:02;;;;;;;65.60;48.95;;;18.00;67.00;;;;;;4959636;28;98327;-49
2022/09/27 04:22:28;;;;;;;65.32;48.97;;;18.00;66.90;;;;;;4959821;28;95292;-53
2022/09/27 04:24:53;;;;;;;65.18;48.85;;;18.00;67.00;;;;;;4964543;28;97156;-53
2022/09/27 04:27:20;;;;;;;65.55;48.95;;;18.00;66.90;;;;;;4965452;28;95476;-53
2022/09/27 04:29:46;;;;;;;65.30;48.85;;;17.90;67.30;;;;;;4954521;28;96877;-55
2022/09/27 04:32:12;;;;;;;65.78;48.75;;;17.90;67.40;;;;;;4961015;28;95256;-54
2022/09/27 04:37:22;;;;;;;66.20;48.95;;;17.90;67.60;;;;;;4961588;28;95797;-53
2022/09/27 04:39:48;;;;;;;66.25;49.05;;;17.90;67.70;;;;;;4967379;28;96080;-55
2022/09/27 04:42:15;;;;;;;65.38;49.25;;;17.90;67.50;;;;;;4961607;28;94449;-53
2022/09/27 04:44:40;;;;;;;65.97;48.70;;;17.90;67.70;;;;;;4959560;28;96033;-51
2022/09/27 04:47:06;;;;;;;65.30;49.25;;;17.90;67.60;;;;;;4963048;28;95443;-54
2022/09/27 04:49:32;;;;;;;66.47;48.80;;;17.90;67.60;;;;;;4972888;28;96359;-54
2022/09/27 04:51:57;;;;;;;65.97;48.85;;;17.90;67.60;;;;;;4961476;28;94918;-54
2022/09/27 04:54:23;;;;;;;65.53;48.88;;;17.90;67.60;;;;;;4970670;28;95224;-52
2022/09/27 04:56:49;;;;;;;64.85;48.45;;;18.00;67.50;;;;;;4971845;28;95193;-55
2022/09/27 04:59:15;;;;;;;65.07;48.47;;;18.10;67.80;;;;;;4962401;28;95572;-52
2022/09/27 05:01:41;;;;;;;65.97;49.22;;;18.10;67.20;;;;;;4961186;28;95059;-54
2022/09/27 05:04:07;;;;;;;67.55;48.92;;;18.10;67.10;;;;;;4961352;28;99616;-53
2022/09/27 05:06:32;;;;;;;65.55;48.92;;;18.10;66.80;;;;;;4968623;28;98329;-54
2022/09/27 05:08:58;;;;;;;65.38;48.95;;;18.30;66.30;;;;;;4970923;28;95714;-54
2022/09/27 05:11:25;;;;;;;67.57;49.17;;;18.20;66.40;;;;;;4964924;28;95541;-54
2022/09/27 05:13:50;;;;;;;66.60;48.85;;;18.10;66.70;;;;;;4972006;28;96944;-58
2022/09/27 05:16:16;;;;;;;65.00;48.95;;;18.10;67.00;;;;;;4962597;28;95898;-57
2022/09/27 05:18:42;;;;;;;67.90;49.08;;;18.10;67.10;;;;;;4964462;28;95161;-59
2022/09/27 05:21:07;;;;;;;66.80;48.72;;;18.20;66.80;;;;;;4961867;28;95226;-57
2022/09/27 05:23:33;;;;;;;65.93;49.08;;;18.20;66.60;;;;;;4961462;28;100229;-58
2022/09/27 05:26:06;;;;;;;69.75;49.00;;;18.20;66.40;;;;;;4961392;28;95080;-58
2022/09/27 05:28:34;;;;;;;67.32;49.08;;;18.00;66.70;;;;;;4956128;28;95822;-59
2022/09/27 05:31:00;;;;;;;67.10;49.10;;;18.00;67.10;;;;;;4965316;28;97951;-57
2022/09/27 05:33:26;;;;;;;66.50;49.15;;;17.90;67.20;;;;;;4962465;28;95918;-59
2022/09/27 05:35:56;;;;;;;66.07;48.92;;;17.90;67.30;;;;;;4967127;28;95380;-59
2022/09/27 05:38:24;;;;;;;66.07;48.88;;;17.90;67.20;;;;;;4963123;28;95750;-59
2022/09/27 05:40:50;;;;;;;66.22;49.00;;;17.90;67.40;;;;;;4958338;28;96354;-58
2022/09/27 05:43:19;;;;;;;65.43;49.03;;;17.90;67.30;;;;;;4959706;28;97409;-58
2022/09/27 05:45:45;;;;;;;68.32;49.13;;;17.90;67.40;;;;;;4966485;28;95257;-57
2022/09/27 05:48:12;;;;;;;70.18;49.42;;;18.00;67.20;;;;;;4967650;28;98126;-58
2022/09/27 05:50:38;;;;;;;67.32;48.83;;;17.90;67.10;;;;;;4947743;28;97899;-58
2022/09/27 05:53:04;;;;;;;66.22;48.80;;;18.10;66.80;;;;;;4957856;28;95655;-58
2022/09/27 05:55:30;;;;;;;67.35;49.20;;;18.20;66.70;;;;;;4957219;28;96168;-58
2022/09/27 05:58:01;;;;;;;66.47;49.28;;;18.10;66.50;;;;;;4965519;28;95380;-58
2022/09/27 06:00:27;;;;;;;66.57;49.05;;;18.00;66.70;;;;;;4969823;28;94667;-58
2022/09/27 06:03:01;;;;;;;65.80;48.95;;;18.00;66.70;;;;;;4962301;28;96847;-58
2022/09/27 06:05:28;;;;;;;65.70;48.88;;;17.90;67.00;;;;;;4960056;28;96685;-57
2022/09/27 06:07:59;;;;;;;68.30;49.10;;;17.90;67.30;;;;;;4960792;28;96927;-59
2022/09/27 06:10:25;;;;;;;65.70;49.08;;;17.90;66.60;;;;;;4972698;28;94975;-58
2022/09/27 06:12:51;;;;;;;65.50;49.00;;;17.90;67.30;;;;;;4962022;28;95248;-57
2022/09/27 06:15:17;;;;;;;69.43;49.15;;;17.80;67.40;;;;;;4959721;28;96306;-58
2022/09/27 06:17:42;;;;;;;74.03;49.58;;;17.80;67.20;;;;;;4963557;28;94589;-58
2022/09/27 06:20:09;;;;;;;67.50;49.28;;;17.80;67.10;;;;;;4969686;28;94462;-56
2022/09/27 06:22:35;;;;;;;65.60;48.88;;;17.90;67.20;;;;;;4963862;28;98750;-58
2022/09/27 06:25:02;;;;;;;66.28;49.28;;;17.90;67.10;;;;;;4960786;28;94797;-58
2022/09/27 06:27:31;;;;;;;68.63;49.03;;;17.90;67.40;;;;;;4972031;28;96126;-58
2022/09/27 06:29:57;;;;;;;66.47;49.20;;;17.90;67.10;;;;;;4958711;28;96269;-52
2022/09/27 06:32:22;;;;;;;66.88;48.65;;;17.80;67.20;;;;;;4965967;28;96919;-50
2022/09/27 06:34:48;;;;;;;64.85;48.72;;;17.90;67.10;;;;;;4956422;28;94720;-54
2022/09/27 06:37:14;;;;;;;66.47;49.08;;;17.80;67.30;;;;;;4961684;28;96161;-52
2022/09/27 06:39:40;;;;;;;67.05;49.08;;;17.80;67.10;;;;;;4962955;28;95745;-52
2022/09/27 06:42:06;;;;;;;67.72;49.00;;;17.90;67.10;;;;;;4966854;28;94823;-49
2022/09/27 06:44:31;;;;;;;68.10;49.17;;;17.90;67.00;;;;;;4967811;28;96379;-54
2022/09/27 06:46:57;;;;;;;68.07;49.38;;;17.80;67.20;;;;;;4966379;28;97608;-54
2022/09/27 06:49:24;;;;;;;65.85;48.85;;;17.80;67.10;;;;;;4957560;28;94765;-52
2022/09/27 06:51:51;;;;;;;67.57;49.05;;;17.90;67.90;;;;;;4962057;28;96754;-51
2022/09/27 06:54:17;;;;;;;65.65;49.08;;;17.90;66.90;;;;;;4963704;28;97003;-52
2022/09/27 06:56:45;;;;;;;67.47;48.75;;;18.00;66.70;;;;;;4968935;28;95222;-52
2022/09/27 07:01:55;;;;;;;65.75;49.05;;;18.00;67.00;;;;;;4963583;28;101663;-51
2022/09/27 07:04:21;;;;;;;66.25;49.00;;;18.00;66.70;;;;;;4965324;28;96940;-51
2022/09/27 07:06:47;;;;;;;67.68;49.38;;;18.10;66.50;;;;;;4966869;28;95327;-52
2022/09/27 07:09:13;;;;;;;65.95;48.85;;;18.10;66.40;;;;;;4964932;28;95056;-51
2022/09/27 07:11:39;;;;;;;66.85;48.97;;;18.20;66.30;;;;;;4958238;28;98105;-50
2022/09/27 07:14:06;;;;;;;67.63;48.95;;;18.10;66.70;;;;;;4969591;28;95247;-52
2022/09/27 07:16:33;;;;;;;66.40;49.30;;;18.10;66.50;;;;;;4972203;28;96205;-54
2022/09/27 07:18:59;;;;;;;66.93;48.78;;;18.20;66.20;;;;;;4962683;28;95307;-51
2022/09/27 07:21:25;;;;;;;65.78;49.15;;;18.20;66.00;;;;;;4967927;28;95048;-52
2022/09/27 07:23:51;;;;;;;66.53;49.05;;;18.30;65.80;;;;;;4971036;28;97326;-52
2022/09/27 07:26:17;;;;;;;66.63;49.17;;;18.30;65.70;;;;;;4964967;28;95170;-52
2022/09/27 07:28:43;;;;;;;69.22;49.15;;;18.30;65.60;;;;;;4976809;28;95203;-55
2022/09/27 07:31:09;;;;;;;66.03;49.08;;;18.40;65.30;;;;;;4963171;28;96052;-52
2022/09/27 07:33:35;;;;;;;65.97;49.22;;;18.40;65.10;;;;;;4969004;28;95174;-50
2022/09/27 07:36:07;;;;;;;67.75;49.22;;;18.50;65.10;;;;;;4962678;28;95848;-48
2022/09/27 07:38:32;;;;;;;65.97;49.17;;;18.50;65.00;;;;;;4967309;28;95022;-50
2022/09/27 07:41:04;;;;;;;67.93;49.42;;;18.60;64.80;;;;;;4967867;28;96303;-49
2022/09/27 07:43:29;;;;;;;67.32;49.42;;;18.60;64.60;;;;;;4961658;28;96497;-50
2022/09/27 07:45:55;;;;;;;68.75;49.42;;;18.60;64.30;;;;;;4963183;28;95431;-53
2022/09/27 07:48:21;;;;;;;69.25;49.75;;;18.50;64.70;;;;;;4966980;28;95111;-52
2022/09/27 07:50:51;;;;;;;66.97;49.45;;;18.50;64.40;;;;;;4964726;28;97629;-52
2022/09/27 07:53:17;;;;;;;66.65;49.10;;;18.60;64.50;;;;;;4968316;28;96208;-51
2022/09/27 07:55:42;;;;;;;67.22;49.05;;;18.60;64.30;;;;;;4963591;28;95163;-53
2022/09/27 07:58:12;;;;;;;66.38;48.95;;;18.60;64.30;;;;;;4973448;28;95696;-53
2022/09/27 08:00:39;;;;;;;68.03;49.38;;;18.70;64.10;;;;;;4967017;28;95490;-54
2022/09/27 08:03:13;;;;;;;67.22;48.95;;;18.70;64.10;;;;;;4971120;28;95196;-53
2022/09/27 08:05:38;;;;;;;67.70;49.35;;;18.60;64.80;;;;;;4960371;28;96840;-50
2022/09/27 08:08:04;;;;;;;67.00;49.35;;;18.70;65.10;;;;;;4958947;28;95075;-51
2022/09/27 08:10:32;;;;;;;66.57;49.47;;;18.70;65.00;;;;;;4967818;28;96268;-55
2022/09/27 08:13:02;;;;;;;67.93;49.60;;;18.70;65.30;;;;;;4969488;28;95060;-53
2022/09/27 08:15:28;;;;;;;68.63;49.08;;;18.70;65.40;;;;;;4959359;28;96723;-54
2022/09/27 08:17:54;;;;;;;67.32;49.60;;;18.70;65.00;;;;;;4968437;28;94992;-51
2022/09/27 08:20:19;;;;;;;68.85;49.22;;;18.80;65.80;;;;;;4968670;28;98728;-50
2022/09/27 08:22:45;;;;;;;66.75;49.13;;;18.80;65.10;;;;;;4964067;28;94307;-48
2022/09/27 08:25:11;;;;;;;69.22;49.33;;;18.70;65.30;;;;;;4974316;28;95168;-52
2022/09/27 08:27:37;;;;;;;65.93;49.30;;;18.70;64.70;;;;;;4968393;28;100824;-52
2022/09/27 08:30:03;;;;;;;67.07;49.58;;;18.80;65.10;;;;;;4965004;28;96273;-51
2022/09/27 08:32:29;;;;;;;68.53;49.45;;;18.80;63.90;;;;;;4960218;28;96646;-53
2022/09/27 08:34:55;;;;;;;67.40;49.25;;;18.80;64.00;;;;;;4966511;28;97396;-53
2022/09/27 08:37:21;;;;;;;66.40;49.08;;;18.80;63.80;;;;;;4968261;28;95393;-50
2022/09/27 08:39:47;;;;;;;66.25;49.03;;;18.70;64.40;;;;;;4969064;28;95948;-49
2022/09/27 08:42:31;;;;;;;66.88;49.25;;;18.70;64.70;;;;;;4961812;28;95393;-50
2022/09/27 08:45:03;;;;;;;66.50;49.08;;;18.50;65.00;;;;;;4962283;28;95330;-53
2022/09/27 08:47:28;;;;;;;;;;;18.50;65.20;;;;;;4965246;28;94499;-56
2022/09/27 08:50:12;;;;;;;67.97;49.25;;;18.40;65.70;;;;;;4960158;28;95123;-50
2022/09/27 08:52:42;;;;;;;65.88;48.95;;;18.50;65.30;;;;;;4966433;28;95263;-52
2022/09/27 08:55:29;;;;;;;65.18;48.83;;;18.50;65.00;;;;;;4966053;28;96153;-51
2022/09/27 08:57:57;;;;;;;66.82;48.97;;;18.40;65.00;;;;;;4968726;28;94763;-52
2022/09/27 09:00:23;;;;;;;66.25;49.25;;;18.50;64.30;;;;;;4964743;28;95159;-51
2022/09/27 09:02:49;;;;;;;66.85;49.40;;;18.50;64.90;;;;;;4961540;28;95285;-53
2022/09/27 09:05:30;;;;;;;65.93;49.05;;;18.50;64.20;;;;;;4975116;28;95845;-51
2022/09/27 09:08:22;;;;;;;;;;;18.60;64.30;;;;;;4973289;28;95242;-52
2022/09/27 09:14:04;;;;;;;69.60;49.38;;;18.70;64.20;;;;;;4964555;28;100003;-51
2022/09/27 09:16:42;;;;;;;67.10;49.00;;;18.70;64.10;;;;;;4967804;28;95221;-52
2022/09/27 09:19:20;;;;;;;66.75;49.13;;;18.80;64.00;;;;;;4969850;28;95188;-54
2022/09/27 09:22:13;;;;;;;67.95;49.15;;;18.80;63.90;;;;;;4974910;28;96146;-52
2022/09/27 09:25:00;;;;;;;66.95;48.92;;;18.70;63.50;;;;;;4957412;28;99325;-51
2022/09/27 09:28:00;;;;;;;69.07;49.25;;;18.80;64.10;;;;;;4959761;28;97321;-51
2022/09/27 09:30:41;;;;;;;65.88;49.03;;;18.90;63.80;;;;;;4946676;28;99226;-50
2022/09/27 09:33:25;;;;;;;65.70;49.00;;;18.90;63.40;;;;;;4962251;28;95449;-54
2022/09/27 09:36:03;;;;;;;66.22;48.83;;;18.90;63.20;;;;;;4962804;28;96841;-55
2022/09/27 09:38:53;;;;;;;67.43;48.83;;;18.90;63.60;;;;;;4961195;28;97666;-51
2022/09/27 09:41:41;;;;;;;66.38;49.17;;;18.90;63.90;;;;;;4962803;28;96045;-53
2022/09/27 09:44:45;;;;;;;66.72;49.35;;;18.90;63.80;;;;;;4953715;28;95258;-51
2022/09/27 09:47:28;;;;;;;66.65;49.17;;;19.00;63.40;;;;;;4950926;28;96110;-51
2022/09/27 09:49:59;;;;;;;67.10;49.35;;;19.10;63.30;;;;;;4957646;28;98451;-54
2022/09/27 09:52:31;;;;;;;67.38;49.25;;;19.10;62.20;;;;;;4959983;28;94725;-54
2022/09/27 09:55:13;;;;;;;68.90;49.55;;;19.10;61.70;;;;;;4964683;28;96544;-51
2022/09/27 09:58:12;;;;;;;66.07;48.97;;;19.00;61.80;;;;;;4965309;28;95210;-54
2022/09/27 10:00:40;;;;;;;67.55;49.22;;;19.10;62.00;;;;;;4965292;28;95082;-53
2022/09/27 10:03:06;;;;;;;66.85;49.45;;;19.10;61.60;;;;;;4967983;28;95068;-51
2022/09/27 10:05:32;;;;;;;66.40;49.15;;;19.10;61.90;;;;;;4957945;28;99742;-54
2022/09/27 10:08:01;;;;;;;66.47;49.30;;;19.10;61.90;;;;;;4968296;28;96059;-52
2022/09/27 10:10:27;;;;;;;66.80;49.42;;;19.10;61.80;;;;;;4974864;28;95103;-54
2022/09/27 10:12:53;;;;;;;66.72;49.15;;;19.10;61.60;;;;;;4961030;28;101306;-50
2022/09/27 10:15:28;;;;;;;68.32;49.28;;;19.10;61.60;;;;;;4958841;28;96179;-51
2022/09/27 10:17:57;;;;;;;67.95;49.40;;;19.20;61.70;;;;;;4973442;28;96779;-51
2022/09/27 10:20:33;;;;;;;66.93;49.47;;;19.10;61.40;;;;;;4957150;28;97848;-49
2022/09/27 10:23:20;;;;;;;67.47;49.25;;;19.20;61.30;;;;;;4968138;28;98035;-51
2022/09/27 10:26:01;;;;;;;68.03;49.05;;;19.10;61.30;;;;;;4964794;28;94942;-49
2022/09/27 10:28:31;;;;;;;67.15;49.35;;;19.10;61.50;;;;;;4976489;28;95684;-50
2022/09/27 10:31:01;;;;;;;67.18;49.28;;;19.10;61.60;;;;;;4957946;28;97429;-48
2022/09/27 10:33:28;;;;;;;67.65;49.28;;;19.10;61.50;;;;;;4960481;28;94455;-52
2022/09/27 10:35:54;;;;;;;67.28;49.17;;;19.20;61.30;;;;;;4961990;28;95094;-50
2022/09/27 10:38:34;;;;;;;68.15;49.53;;;19.20;61.30;;;;;;4973103;28;96321;-51
2022/09/27 10:41:24;;;;;;;67.82;49.65;;;19.20;61.30;;;;;;4958384;28;95893;-54
2022/09/27 10:43:50;;;;;;;67.70;49.45;;;19.20;61.10;;;;;;4968066;28;95401;-51
2022/09/27 10:46:24;;;;;;;67.75;49.35;;;19.30;61.40;;;;;;4967956;28;95141;-53
2022/09/27 10:49:08;;;;;;;71.10;50.10;;;19.20;61.50;;;;;;4971105;28;95163;-52
2022/09/27 10:51:35;;;;;;;67.78;50.15;;;19.20;66.40;;;;;;4970983;28;95493;-52
2022/09/27 10:54:01;;;;;;;68.88;49.42;;;19.20;65.60;;;;;;4976838;28;95646;-50
2022/09/27 10:56:30;;;;;;;67.57;49.33;;;19.20;64.30;;;;;;4961899;28;96672;-51
2022/09/27 10:58:58;;;;;;;69.35;49.67;;;19.30;63.80;;;;;;4968915;28;94295;-51
2022/09/27 11:01:25;;;;;;;69.10;49.45;;;19.20;63.10;;;;;;4962977;28;95135;-52
2022/09/27 11:03:56;;;;;;;68.00;49.53;;;19.30;63.10;;;;;;4978746;28;95088;-53
2022/09/27 11:06:21;;;;;;;66.93;49.40;;;19.20;62.80;;;;;;4967079;28;95703;-49
2022/09/27 11:08:49;;;;;;;68.55;49.42;;;19.30;63.70;;;;;;4972484;28;95810;-49
2022/09/27 11:11:20;;;;;;;67.90;49.53;;;19.30;63.40;;;;;;4975457;28;95495;-53
2022/09/27 11:14:16;;;;;;;68.60;49.35;;;19.30;63.10;;;;;;4977646;28;95107;-51
2022/09/27 11:17:00;;;;;;;67.93;49.50;;;19.40;62.50;;;;;;4972478;28;99135;-55
2022/09/27 11:19:55;;;;;;;68.50;49.17;;;19.30;62.90;;;;;;4972643;28;95021;-51
2022/09/27 11:22:46;;;;;;;68.50;49.35;;;19.40;63.30;;;;;;4972121;28;94836;-54
2022/09/27 11:25:40;;;;;;;68.93;49.42;;;19.50;62.90;;;;;;4978154;28;96910;-54
2022/09/27 11:28:22;;;;;;;67.38;49.45;;;19.50;62.10;;;;;;4970120;28;96511;-51
2022/09/27 11:31:09;;;;;;;68.20;49.38;;;19.60;62.10;;;;;;4972426;28;95585;-50
2022/09/27 11:33:47;;;;;;;68.78;49.80;;;19.60;62.00;;;;;;4966730;28;96474;-50
2022/09/27 11:36:36;;;;;;;70.00;50.30;;;19.60;63.20;;;;;;4975157;28;95768;-52
2022/09/27 11:39:20;;;;;;;68.50;49.90;;;19.60;66.40;;;;;;4970021;28;95205;-52
2022/09/27 11:41:52;;;;;;;68.82;49.72;;;19.70;65.70;;;;;;4964553;28;97478;-51
2022/09/27 11:45:17;;;;;;;69.30;49.72;;;19.70;64.20;;;;;;4974142;28;95080;-50
2022/09/27 11:48:10;;;;;;;69.07;49.72;;;19.70;63.10;;;;;;4953283;28;95910;-52
2022/09/27 11:51:13;;;;;;;68.90;49.35;;;19.80;62.90;;;;;;4973547;28;95733;-53
2022/09/27 11:53:47;;;;;;;69.47;49.85;;;19.70;62.30;;;;;;4946640;28;95955;-49
2022/09/27 11:56:38;;;;;;;68.75;49.58;;;19.70;62.00;;;;;;4975180;28;95137;-51
2022/09/27 11:59:22;;;;;;;70.30;49.83;;;19.70;61.60;;;;;;4970857;28;95599;-50
2022/09/27 12:01:57;;;;;;;70.57;50.05;;;19.70;61.60;;;;;;4971232;28;96509;-53
2022/09/27 12:04:48;;;;;;;68.38;49.58;;;19.70;61.50;;;;;;4966342;28;95898;-52
2022/09/27 12:07:32;;;;;;;69.05;50.03;;;19.80;61.60;;;;;;4969540;28;95266;-52
2022/09/27 12:10:03;;;;;;;69.40;49.70;;;19.70;61.60;;;;;;4975013;28;94876;-52
2022/09/27 12:12:33;;;;;;;72.18;50.33;;;19.80;61.50;;;;;;4958730;28;96201;-51
2022/09/27 12:15:03;;;;;;;73.05;49.83;;;19.90;61.20;;;;;;4962997;28;98328;-53
2022/09/27 12:17:34;;;;;;;71.72;50.33;;;19.90;61.10;;;;;;4965030;28;99117;-53
2022/09/27 12:20:10;;;;;;;70.80;49.85;;;19.90;61.20;;;;;;4967882;28;94228;-54
2022/09/27 12:22:56;;;;;;;70.15;49.95;;;19.90;61.00;;;;;;4972333;28;97913;-54
2022/09/27 12:25:28;;;;;;;69.43;49.80;;;19.90;60.90;;;;;;4976466;28;95133;-52
2022/09/27 12:28:02;;;;;;;69.43;50.28;;;19.90;61.00;;;;;;4967768;28;96798;-52
2022/09/27 12:30:33;;;;;;;68.93;49.95;;;19.90;61.20;;;;;;4958616;28;100569;-52
2022/09/27 12:33:28;;;;;;;69.40;49.90;;;20.00;61.10;;;;;;4959815;28;98970;-50
2022/09/27 12:36:00;;;;;;;70.07;50.17;;;20.00;60.90;;;;;;4962222;28;95149;-52
2022/09/27 12:38:38;;;;;;;69.63;50.03;;;20.00;60.80;;;;;;4968859;28;95151;-52
2022/09/27 12:41:11;;;;;;;69.65;50.40;;;19.90;60.70;;;;;;4969519;28;95038;-52
2022/09/27 12:43:43;;;;;;;68.50;49.78;;;19.90;60.70;;;;;;4961158;28;95282;-52
2022/09/27 12:46:21;;;;;;;69.18;50.05;;;20.00;61.00;;;;;;4968225;28;95879;-50
2022/09/27 12:49:24;;;;;;;69.13;49.95;;;19.90;60.60;;;;;;4960721;28;94748;-52
2022/09/27 12:52:11;;;;;;;69.13;49.75;;;20.00;60.50;;;;;;4962668;28;100849;-49
2022/09/27 12:55:16;;;;;;;70.78;49.95;;;19.90;60.30;;;;;;4961989;28;96244;-51
2022/09/27 12:58:00;;;;;;;70.90;50.20;;;20.00;60.60;;;;;;4960552;28;95140;-52
2022/09/27 13:00:33;;;;;;;69.40;50.13;;;20.00;60.30;;;;;;4959328;28;95158;-50
2022/09/27 13:03:31;;;;;;;68.72;49.83;;;20.00;60.30;;;;;;4966850;28;95115;-54
2022/09/27 13:06:12;;;;;;;69.35;50.03;;;20.00;60.20;;;;;;4973315;28;95384;-51